Time;durP1;ratioP1;P1;durP2;ratioP2;P2;SDS_P1;SDS_P2;PMS_P1;PMS_P2;Temp;Humidity;BMP_temperature;BMP_pressure;BME280_temperature;BME280_humidity;BME280_pressure;Samples;Min_cycle;Max_cycle;Signal;HPM_P1;HPM_P2
2022/09/21 00:01:43;;;;;;;3.90;3.45;;;;;;;9.51;92.36;99432.25;4152919;28;20240;-51
2022/09/21 00:03:45;;;;;;;3.50;2.08;;;;;;;9.43;92.48;99427.03;4170250;28;20204;-51
2022/09/21 00:05:47;;;;;;;3.15;2.88;;;;;;;9.36;92.21;99436.34;4185926;28;20307;-51
2022/09/21 00:07:49;;;;;;;2.90;2.40;;;;;;;9.35;92.28;99430.03;4172552;28;20302;-51
2022/09/21 00:09:51;;;;;;;3.65;1.75;;;;;;;9.35;92.20;99442.88;4166651;28;20251;-51
2022/09/21 00:11:53;;;;;;;4.03;2.90;;;;;;;9.30;92.03;99439.94;4184157;28;20211;-52
2022/09/21 00:14:03;;;;;;;4.05;2.97;;;;;;;9.31;92.19;99436.16;4166432;28;20492;-51
2022/09/21 00:16:07;;;;;;;3.67;1.90;;;;;;;9.32;92.08;99443.28;4160911;28;20642;-51
2022/09/21 00:18:09;;;;;;;3.92;2.22;;;;;;;9.33;92.23;99432.16;4158916;28;20228;-50
2022/09/21 00:20:10;;;;;;;2.88;2.35;;;;;;;9.34;92.43;99438.47;4153582;28;20593;-51
2022/09/21 00:22:12;;;;;;;2.67;2.05;;;;;;;9.22;91.92;99435.56;4149991;28;20292;-51
2022/09/21 00:24:14;;;;;;;3.38;2.70;;;;;;;9.15;92.07;99433.97;4181347;28;20200;-52
2022/09/21 00:26:18;;;;;;;3.03;2.15;;;;;;;9.11;91.91;99438.16;4185857;28;20753;-51
2022/09/21 00:28:20;;;;;;;2.70;2.50;;;;;;;9.03;92.23;99432.97;4151851;28;20293;-51
2022/09/21 00:30:21;;;;;;;4.35;2.72;;;;;;;9.06;92.19;99435.25;4159924;28;20639;-52
2022/09/21 00:32:24;;;;;;;3.90;2.90;;;;;;;9.09;91.83;99434.84;4159251;28;20212;-51
2022/09/21 00:34:26;;;;;;;2.75;2.55;;;;;;;9.08;91.65;99438.63;4154674;28;20201;-52
2022/09/21 00:36:28;;;;;;;2.03;1.60;;;;;;;9.05;91.72;99439.03;4167169;28;20642;-51
2022/09/21 00:38:30;;;;;;;2.50;2.30;;;;;;;9.00;92.15;99436.97;4153242;28;20307;-52
2022/09/21 00:40:31;;;;;;;2.15;2.05;;;;;;;9.05;91.68;99439.88;4137635;28;20249;-53
2022/09/21 00:42:34;;;;;;;2.65;2.45;;;;;;;9.02;92.38;99431.31;4167294;28;20212;-51
2022/09/21 00:44:36;;;;;;;3.25;2.60;;;;;;;9.04;92.39;99438.22;4153872;28;20205;-51
2022/09/21 00:46:40;;;;;;;5.03;2.40;;;;;;;9.09;92.28;99445.75;4142499;28;20679;-51
2022/09/21 00:48:42;;;;;;;3.80;2.20;;;;;;;9.00;92.25;99442.44;4176887;28;20273;-51
2022/09/21 00:50:49;;;;;;;2.83;2.42;;;;;;;8.90;92.70;99442.03;4154815;28;20225;-51
2022/09/21 00:52:54;;;;;;;2.97;2.35;;;;;;;8.81;92.82;99439.81;4156593;28;20228;-52
2022/09/21 00:55:09;;;;;;;2.53;2.33;;;;;;;8.76;92.23;99434.16;4150378;28;20213;-52
2022/09/21 00:57:11;;;;;;;4.60;3.00;;;;;;;8.79;92.64;99441.88;4157145;28;20201;-52
2022/09/21 00:59:14;;;;;;;2.83;2.63;;;;;;;8.73;92.24;99434.56;4154148;28;20299;-52
2022/09/21 01:01:17;;;;;;;3.08;1.73;;;;;;;8.77;92.24;99441.28;4145721;28;20335;-51
2022/09/21 01:03:19;;;;;;;3.83;2.22;;;;;;;8.74;92.19;99430.81;4157375;28;20213;-53
2022/09/21 01:05:21;;;;;;;3.67;2.40;;;;;;;8.67;92.33;99429.97;4151571;28;20205;-51
2022/09/21 01:07:26;;;;;;;5.70;2.22;;;;;;;8.65;92.51;99434.81;4154626;28;20205;-51
2022/09/21 01:09:28;;;;;;;3.47;2.88;;;;;;;8.72;92.40;99439.19;4158338;28;20221;-52
2022/09/21 01:11:33;;;;;;;2.42;2.22;;;;;;;8.67;92.19;99438.16;4152337;28;20219;-52
2022/09/21 01:14:00;;;;;;;2.78;2.33;;;;;;;8.64;92.63;99433.13;4151227;28;20205;-52
2022/09/21 01:16:06;;;;;;;5.82;3.03;;;;;;;8.73;92.79;99440.00;4167774;28;20210;-52
2022/09/21 01:18:15;;;;;;;2.80;2.58;;;;;;;8.68;93.20;99431.66;4149687;28;20220;-52
2022/09/21 01:20:40;;;;;;;2.72;2.53;;;;;;;8.66;92.62;99436.47;4183631;28;20224;-52
2022/09/21 01:22:42;;;;;;;2.10;1.98;;;;;;;8.57;92.51;99432.31;4166954;28;20200;-51
2022/09/21 01:24:46;;;;;;;4.18;2.33;;;;;;;8.50;92.68;99435.06;4153290;28;20797;-52
2022/09/21 01:26:58;;;;;;;4.38;2.28;;;;;;;8.47;92.75;99440.09;4167491;28;20203;-52
2022/09/21 01:29:05;;;;;;;3.75;2.25;;;;;;;8.41;93.08;99440.97;4185142;28;20210;-50
2022/09/21 01:31:12;;;;;;;2.45;2.10;;;;;;;8.44;92.98;99435.09;4167440;28;20291;-52
2022/09/21 01:33:22;;;;;;;2.88;2.67;;;;;;;8.42;93.03;99432.56;4166372;28;20305;-51
2022/09/21 01:35:31;;;;;;;3.95;2.78;;;;;;;8.44;92.54;99435.94;4166549;28;20196;-51
2022/09/21 01:37:37;;;;;;;3.75;2.35;;;;;;;8.44;92.92;99440.53;4160070;28;20343;-52
2022/09/21 01:39:40;;;;;;;3.08;2.55;;;;;;;8.46;92.66;99438.44;4165768;28;20223;-51
2022/09/21 01:41:43;;;;;;;3.60;2.88;;;;;;;8.42;92.01;99435.28;4159092;28;20723;-51
2022/09/21 01:43:49;;;;;;;2.38;2.17;;;;;;;8.44;91.99;99435.94;4166682;28;20243;-51
2022/09/21 01:45:53;;;;;;;3.70;2.22;;;;;;;8.39;91.78;99429.44;4169533;28;20289;-51
2022/09/21 01:47:58;;;;;;;3.63;2.05;;;;;;;8.27;92.04;99433.84;4157216;28;21157;-51
2022/09/21 01:50:03;;;;;;;2.47;2.28;;;;;;;8.28;91.84;99438.28;4182376;28;20466;-52
2022/09/21 01:52:19;;;;;;;3.42;2.63;;;;;;;8.29;92.08;99442.69;4167554;28;20207;-51
2022/09/21 01:54:23;;;;;;;3.40;2.35;;;;;;;8.31;92.02;99440.56;4170027;28;20335;-51
2022/09/21 01:56:35;;;;;;;2.50;1.98;;;;;;;8.26;91.61;99433.03;4152250;28;20627;-51
2022/09/21 01:58:56;;;;;;;3.30;2.45;;;;;;;8.25;91.63;99435.97;4167891;28;20274;-51
2022/09/21 02:00:58;;;;;;;3.92;1.95;;;;;;;8.26;90.99;99440.38;4168134;28;20821;-51
2022/09/21 02:03:09;;;;;;;2.42;2.05;;;;;;;8.15;91.16;99441.00;4182694;28;20465;-51
2022/09/21 02:05:12;;;;;;;2.72;2.08;;;;;;;8.13;91.46;99440.34;4167831;28;20203;-51
2022/09/21 02:07:16;;;;;;;2.30;2.10;;;;;;;8.14;91.72;99436.56;4153382;28;20763;-51
2022/09/21 02:09:17;;;;;;;2.67;2.38;;;;;;;8.13;91.08;99434.91;4166444;28;20231;-51
2022/09/21 02:11:20;;;;;;;2.30;2.08;;;;;;;8.09;91.48;99439.13;4180180;28;20741;-52
2022/09/21 02:13:24;;;;;;;2.85;1.92;;;;;;;8.10;91.55;99432.63;4199436;28;20212;-51
2022/09/21 02:15:46;;;;;;;3.30;2.22;;;;;;;8.11;91.25;99439.75;4150467;28;20201;-52
2022/09/21 02:18:07;;;;;;;2.28;2.08;;;;;;;8.03;91.33;99443.50;4182953;28;20250;-51
2022/09/21 02:20:16;;;;;;;2.70;2.50;;;;;;;8.00;91.05;99437.63;4147997;28;20388;-52
2022/09/21 02:22:35;;;;;;;2.80;2.53;;;;;;;8.02;91.34;99432.84;4152906;28;20320;-53
2022/09/21 02:24:43;;;;;;;5.85;3.45;;;;;;;8.00;91.29;99437.63;4142442;28;20285;-51
2022/09/21 02:26:49;;;;;;;1.90;1.73;;;;;;;7.94;91.45;99435.75;4150214;28;20208;-52
2022/09/21 02:28:51;;;;;;;4.32;2.65;;;;;;;8.03;91.38;99427.16;4169591;28;20196;-52
2022/09/21 02:31:01;;;;;;;2.65;2.45;;;;;;;8.04;91.18;99438.91;4162839;28;20262;-51
2022/09/21 02:33:26;;;;;;;3.10;2.42;;;;;;;7.90;91.35;99434.53;4159501;28;20216;-51
2022/09/21 02:35:30;;;;;;;2.88;2.67;;;;;;;7.90;92.27;99426.34;4171849;28;20291;-51
2022/09/21 02:37:32;;;;;;;5.63;2.22;;;;;;;7.82;92.09;99440.19;4171303;28;20205;-52
2022/09/21 02:39:38;;;;;;;2.67;2.47;;;;;;;7.74;92.00;99434.91;4157154;28;20324;-51
2022/09/21 02:41:46;;;;;;;2.47;2.28;;;;;;;7.72;91.96;99437.03;4173222;28;20288;-51
2022/09/21 02:44:22;;;;;;;2.55;2.30;;;;;;;7.72;91.81;99439.75;4168922;28;20321;-51
2022/09/21 02:46:33;;;;;;;3.30;1.98;;;;;;;7.82;91.57;99438.28;4156063;28;20204;-51
2022/09/21 02:48:42;;;;;;;1.88;1.77;;;;;;;7.75;91.50;99444.81;4152492;28;20220;-52
2022/09/21 02:50:45;;;;;;;3.15;2.10;;;;;;;7.73;91.38;99446.88;4169758;28;20232;-52
2022/09/21 02:52:47;;;;;;;3.50;3.00;;;;;;;7.72;91.41;99439.75;4162188;28;20287;-51
2022/09/21 02:54:51;;;;;;;2.13;1.92;;;;;;;7.70;91.44;99436.41;4155792;28;20295;-52
2022/09/21 02:56:53;;;;;;;2.45;1.77;;;;;;;7.62;91.39;99439.34;4155036;28;20675;-51
2022/09/21 02:58:58;;;;;;;2.50;2.30;;;;;;;7.59;91.54;99435.16;4174948;28;20307;-50
2022/09/21 03:01:00;;;;;;;2.95;2.75;;;;;;;7.64;91.71;99432.66;4169409;28;20204;-51
2022/09/21 03:03:16;;;;;;;2.17;2.05;;;;;;;7.63;91.50;99438.28;4154142;28;20232;-51
2022/09/21 03:05:17;;;;;;;2.50;2.30;;;;;;;7.70;91.28;99433.69;4153123;28;20574;-51
2022/09/21 03:07:19;;;;;;;3.63;2.47;;;;;;;7.69;91.13;99440.19;4185017;28;20317;-51
2022/09/21 03:09:23;;;;;;;2.80;2.50;;;;;;;7.57;91.11;99433.69;4159377;28;20228;-52
2022/09/21 03:11:28;;;;;;;3.15;2.38;;;;;;;7.46;91.31;99434.28;4154973;28;20301;-51
2022/09/21 03:13:29;;;;;;;2.50;2.30;;;;;;;7.44;91.67;99430.94;4152913;28;20798;-50
2022/09/21 03:15:31;;;;;;;2.30;2.17;;;;;;;7.40;91.06;99421.50;4170972;28;20288;-51
2022/09/21 03:17:33;;;;;;;3.22;2.97;;;;;;;7.39;91.68;99430.72;4168364;28;20228;-53
2022/09/21 03:19:35;;;;;;;2.65;2.45;;;;;;;7.37;91.29;99427.38;4160497;28;20762;-51
2022/09/21 03:21:37;;;;;;;2.42;2.15;;;;;;;7.34;91.99;99435.94;4155600;28;20291;-52
2022/09/21 03:23:45;;;;;;;2.80;2.28;;;;;;;7.30;91.22;99434.69;4157021;28;20746;-50
2022/09/21 03:25:46;;;;;;;3.88;2.40;;;;;;;7.32;91.56;99433.44;4154591;28;20211;-51
2022/09/21 03:27:52;;;;;;;3.20;2.60;;;;;;;7.30;91.42;99438.25;4160575;28;20629;-51
2022/09/21 03:29:54;;;;;;;2.40;2.20;;;;;;;7.37;91.23;99441.00;4155453;28;20261;-51
2022/09/21 03:32:02;;;;;;;3.80;2.42;;;;;;;7.34;91.54;99441.38;4153038;28;20208;-52
2022/09/21 03:34:04;;;;;;;2.45;2.22;;;;;;;7.28;91.87;99442.25;4150192;28;20209;-52
2022/09/21 03:36:06;;;;;;;5.97;2.72;;;;;;;7.28;91.92;99447.69;4158527;28;20233;-50
2022/09/21 03:38:08;;;;;;;2.78;2.58;;;;;;;7.23;92.05;99445.56;4151760;28;20319;-52
2022/09/21 03:40:11;;;;;;;4.40;3.25;;;;;;;7.21;91.95;99446.84;4184175;28;20716;-52
2022/09/21 03:42:13;;;;;;;2.95;2.75;;;;;;;7.28;91.92;99442.25;4153954;28;20713;-50
2022/09/21 03:44:16;;;;;;;4.07;2.35;;;;;;;7.31;91.34;99447.25;4157698;28;20201;-52
2022/09/21 03:46:21;;;;;;;2.45;2.25;;;;;;;7.30;91.64;99442.88;4156250;28;20248;-51
2022/09/21 03:48:23;;;;;;;2.28;2.08;;;;;;;7.24;91.72;99440.97;4169602;28;20212;-51
2022/09/21 03:50:27;;;;;;;2.67;2.28;;;;;;;7.11;92.07;99443.66;4158967;28;20225;-51
2022/09/21 03:52:29;;;;;;;2.08;1.98;;;;;;;7.07;92.82;99439.66;4150771;28;20248;-51
2022/09/21 03:54:30;;;;;;;2.63;2.42;;;;;;;7.05;92.60;99439.03;4158963;28;20295;-51
2022/09/21 03:56:32;;;;;;;2.47;2.28;;;;;;;7.05;92.38;99439.88;4184529;28;20334;-51
2022/09/21 03:58:34;;;;;;;3.13;2.47;;;;;;;7.02;92.42;99439.44;4156156;28;20666;-52
2022/09/21 04:00:37;;;;;;;5.07;2.53;;;;;;;7.02;91.93;99442.16;4153569;28;20670;-52
2022/09/21 04:02:39;;;;;;;2.92;2.50;;;;;;;6.98;91.47;99440.88;4159467;28;20232;-51
2022/09/21 04:04:41;;;;;;;9.07;2.97;;;;;;;6.97;91.84;99441.94;4159401;28;20662;-51
2022/09/21 04:06:45;;;;;;;8.13;2.47;;;;;;;6.93;91.73;99449.66;4168581;28;20207;-52
2022/09/21 04:08:49;;;;;;;3.22;2.75;;;;;;;6.92;91.97;99445.28;4150223;28;20248;-52
2022/09/21 04:10:51;;;;;;;7.35;2.75;;;;;;;6.87;91.27;99450.47;4152889;28;20299;-52
2022/09/21 04:12:56;;;;;;;3.80;3.05;;;;;;;6.78;91.74;99449.00;4168475;28;20308;-51
2022/09/21 04:14:58;;;;;;;3.45;3.00;;;;;;;6.77;92.44;99449.19;4168334;28;20319;-51
2022/09/21 04:17:00;;;;;;;3.08;2.83;;;;;;;6.80;91.67;99446.03;4156996;28;20311;-52
2022/09/21 04:19:01;;;;;;;2.75;2.55;;;;;;;6.83;92.14;99448.38;4154408;28;20311;-52
2022/09/21 04:21:04;;;;;;;8.57;2.75;;;;;;;6.87;91.83;99452.34;4150115;28;20323;-52
2022/09/21 04:23:07;;;;;;;2.22;1.92;;;;;;;6.87;91.38;99449.63;4183355;28;20870;-51
2022/09/21 04:25:12;;;;;;;2.58;1.80;;;;;;;6.83;91.78;99451.91;4154355;28;20685;-52
2022/09/21 04:27:14;;;;;;;2.67;2.15;;;;;;;6.90;91.49;99446.53;4158331;28;20349;-51
2022/09/21 04:29:16;;;;;;;2.88;1.83;;;;;;;6.86;91.64;99454.25;4156320;28;20221;-51
2022/09/21 04:31:17;;;;;;;2.58;2.38;;;;;;;6.81;90.81;99451.28;4168412;28;20692;-51
2022/09/21 04:33:22;;;;;;;2.70;2.47;;;;;;;6.74;91.07;99455.00;4152274;28;20226;-52
2022/09/21 04:35:24;;;;;;;15.52;2.70;;;;;;;6.74;91.38;99452.28;4154489;28;20312;-51
2022/09/21 04:37:26;;;;;;;3.00;2.80;;;;;;;6.77;91.52;99455.44;4169555;28;20231;-53
2022/09/21 04:39:28;;;;;;;3.28;2.67;;;;;;;6.73;91.02;99458.78;4171038;28;20691;-52
2022/09/21 04:41:30;;;;;;;3.03;2.83;;;;;;;6.62;91.14;99462.09;4158251;28;20209;-52
2022/09/21 04:43:32;;;;;;;2.83;2.63;;;;;;;6.57;91.32;99459.97;4152512;28;20217;-51
2022/09/21 04:45:34;;;;;;;6.60;3.28;;;;;;;6.56;91.39;99473.78;4169959;28;20204;-52
2022/09/21 04:47:35;;;;;;;3.15;2.13;;;;;;;6.60;91.56;99470.44;4154371;28;20204;-52
2022/09/21 04:49:37;;;;;;;2.97;2.72;;;;;;;6.55;90.88;99472.09;4156525;28;20314;-51
2022/09/21 04:51:39;;;;;;;3.90;2.30;;;;;;;6.46;91.44;99471.44;4183967;28;20203;-52
2022/09/21 04:53:41;;;;;;;3.10;2.80;;;;;;;6.48;91.25;99477.50;4151681;28;20201;-53
2022/09/21 04:55:45;;;;;;;5.82;2.58;;;;;;;6.52;91.87;99467.06;4169013;28;20228;-51
2022/09/21 04:57:49;;;;;;;6.07;3.53;;;;;;;6.52;91.83;99475.22;4153803;28;20215;-52
2022/09/21 04:59:51;;;;;;;4.15;3.10;;;;;;;6.51;91.52;99478.97;4183886;28;20317;-52
2022/09/21 05:01:53;;;;;;;4.50;2.92;;;;;;;6.44;91.45;99483.53;4150168;28;20243;-51
2022/09/21 05:03:57;;;;;;;3.67;3.38;;;;;;;6.45;91.87;99477.06;4154251;28;20292;-51
2022/09/21 05:05:59;;;;;;;2.90;2.70;;;;;;;6.46;91.56;99470.56;4151841;28;20232;-51
2022/09/21 05:08:01;;;;;;;5.40;3.35;;;;;;;6.53;91.79;99479.59;4186982;28;20204;-51
2022/09/21 05:10:08;;;;;;;4.32;3.05;;;;;;;6.51;91.74;99492.56;4153391;28;20308;-51
2022/09/21 05:12:09;;;;;;;3.40;3.08;;;;;;;6.46;91.61;99481.44;4151966;28;20296;-53
2022/09/21 05:14:11;;;;;;;5.20;3.40;;;;;;;6.44;91.09;99486.25;4184086;28;20207;-52
2022/09/21 05:16:14;;;;;;;4.90;3.22;;;;;;;6.40;91.34;99482.25;4154503;28;20208;-51
2022/09/21 05:18:16;;;;;;;6.35;3.78;;;;;;;6.45;91.42;99477.06;4171345;28;20216;-51
2022/09/21 05:20:18;;;;;;;25.95;6.35;;;;;;;6.49;90.94;99483.78;4170720;28;20315;-49
2022/09/21 05:22:20;;;;;;;8.32;5.15;;;;;;;6.49;91.19;99483.78;4155065;28;20280;-50
2022/09/21 05:24:21;;;;;;;4.30;3.50;;;;;;;6.47;91.02;99483.13;4153530;28;20211;-49
2022/09/21 05:26:23;;;;;;;2.85;2.63;;;;;;;6.44;92.13;99487.09;4153113;28;20201;-49
2022/09/21 05:28:25;;;;;;;3.17;2.78;;;;;;;6.33;92.11;99484.94;4183622;28;20286;-49
2022/09/21 05:30:27;;;;;;;5.95;2.95;;;;;;;6.31;91.75;99492.47;4154906;28;20324;-50
2022/09/21 05:32:46;;;;;;;3.05;2.85;;;;;;;6.24;92.13;99479.84;4155867;28;20224;-49
2022/09/21 05:35:15;;;;;;;3.53;3.22;;;;;;;6.20;92.21;99492.16;4182607;28;20205;-49
2022/09/21 05:37:36;;;;;;;3.15;2.85;;;;;;;6.24;92.07;99490.72;4150556;28;20209;-49
2022/09/21 05:39:39;;;;;;;4.88;3.42;;;;;;;6.22;92.19;99503.69;4167982;28;20319;-50
2022/09/21 05:41:41;;;;;;;3.45;2.78;;;;;;;6.26;92.39;99507.66;4141881;28;20209;-50
2022/09/21 05:43:44;;;;;;;4.35;3.70;;;;;;;6.29;92.48;99507.28;4142269;28;20233;-50
2022/09/21 05:45:50;;;;;;;3.38;3.17;;;;;;;6.26;92.22;99505.78;4150327;28;20654;-52
2022/09/21 05:48:10;;;;;;;3.05;2.85;;;;;;;6.27;92.47;99506.63;4167376;28;20559;-50
2022/09/21 05:50:43;;;;;;;3.85;3.17;;;;;;;6.24;92.62;99507.03;4157929;28;20354;-52
2022/09/21 05:53:22;;;;;;;3.40;3.17;;;;;;;6.24;92.25;99517.91;4168072;28;20209;-50
2022/09/21 05:55:36;;;;;;;2.95;2.75;;;;;;;6.27;92.38;99517.50;4165348;28;20215;-50
2022/09/21 05:57:48;;;;;;;5.53;2.97;;;;;;;6.25;92.14;99525.00;4170218;28;20230;-50
2022/09/21 06:00:01;;;;;;;3.00;2.80;;;;;;;6.27;92.32;99517.50;4156864;28;20283;-52
2022/09/21 06:02:14;;;;;;;3.42;2.75;;;;;;;6.28;92.20;99519.19;4169425;28;20231;-51
2022/09/21 06:04:16;;;;;;;3.28;2.78;;;;;;;6.30;92.65;99522.53;4170051;28;20196;-50
2022/09/21 06:06:19;;;;;;;3.67;3.38;;;;;;;6.39;92.69;99527.63;4160298;28;20212;-52
2022/09/21 06:08:21;;;;;;;5.50;3.65;;;;;;;6.44;92.55;99527.88;4157805;28;20213;-52
2022/09/21 06:10:23;;;;;;;6.28;2.25;;;;;;;6.49;92.77;99533.53;4170537;28;20231;-51
2022/09/21 06:12:25;;;;;;;6.15;4.43;;;;;;;6.54;92.78;99530.22;4153704;28;20208;-50
2022/09/21 06:14:27;;;;;;;3.28;3.08;;;;;;;6.56;92.58;99522.72;4157242;28;20209;-51
2022/09/21 06:16:37;;;;;;;2.97;2.78;;;;;;;6.67;93.67;99525.72;4159178;28;20204;-52
2022/09/21 06:18:40;;;;;;;3.90;3.60;;;;;;;6.89;95.82;99529.19;4149934;28;20205;-50
2022/09/21 06:20:41;;;;;;;5.18;3.60;;;;;;;7.12;97.10;99525.09;4163615;28;20726;-50
2022/09/21 06:22:43;;;;;;;5.93;4.57;;;;;;;7.44;97.40;99534.41;4170236;28;20299;-52
2022/09/21 06:24:45;;;;;;;3.75;3.55;;;;;;;8.10;96.08;99536.19;4161323;28;20582;-50
2022/09/21 06:26:47;;;;;;;10.65;5.57;;;;;;;8.66;96.60;99531.97;4155284;28;20212;-50
2022/09/21 06:28:49;;;;;;;7.75;4.78;;;;;;;8.59;93.24;99523.81;4164949;28;20628;-50
2022/09/21 06:30:51;;;;;;;6.93;5.20;;;;;;;8.62;93.63;99537.00;4172022;28;20253;-50
2022/09/21 06:32:53;;;;;;;8.68;5.05;;;;;;;8.92;90.23;99532.75;4173271;28;20275;-50
2022/09/21 06:34:55;;;;;;;4.80;4.43;;;;;;;9.19;89.32;99528.03;4157713;28;20205;-51
2022/09/21 06:36:57;;;;;;;9.00;4.78;;;;;;;10.01;88.92;99537.84;4173636;28;20243;-53
2022/09/21 06:38:59;;;;;;;8.45;4.13;;;;;;;9.98;88.34;99535.56;4159631;28;20691;-51
2022/09/21 06:41:03;;;;;;;5.47;4.90;;;;;;;9.61;88.44;99533.69;4171590;28;20196;-51
2022/09/21 06:43:05;;;;;;;9.63;3.75;;;;;;;10.12;87.81;99539.06;4167523;28;20266;-51
2022/09/21 06:45:07;;;;;;;5.30;3.92;;;;;;;9.87;87.29;99535.44;4161057;28;20205;-52
2022/09/21 06:47:09;;;;;;;7.38;4.68;;;;;;;10.60;86.36;99540.09;4156624;28;21002;-52
2022/09/21 06:49:11;;;;;;;6.47;3.85;;;;;;;10.43;86.85;99541.75;4142025;28;20750;-51
2022/09/21 06:51:12;;;;;;;4.00;3.65;;;;;;;10.45;86.26;99545.94;4172677;28;20694;-51
2022/09/21 06:53:16;;;;;;;3.65;3.35;;;;;;;10.49;85.96;99543.59;4175042;28;20320;-51
2022/09/21 06:55:18;;;;;;;3.75;3.42;;;;;;;10.54;84.40;99535.56;4170890;28;20231;-51
2022/09/21 06:57:20;;;;;;;3.42;3.13;;;;;;;10.50;85.76;99548.84;4172787;28;20208;-51
2022/09/21 06:59:22;;;;;;;3.72;3.40;;;;;;;11.03;85.46;99542.59;4152799;28;20269;-51
2022/09/21 07:01:24;;;;;;;2.92;2.72;;;;;;;10.77;86.00;99536.59;4162265;28;20201;-51
2022/09/21 07:03:26;;;;;;;3.45;3.15;;;;;;;10.72;86.71;99538.31;4169865;28;20208;-52
2022/09/21 07:05:28;;;;;;;2.70;2.50;;;;;;;10.54;87.57;99541.03;4168559;28;21027;-51
2022/09/21 07:07:30;;;;;;;4.38;2.70;;;;;;;11.15;84.40;99539.94;4153886;28;20308;-51
2022/09/21 07:09:32;;;;;;;4.40;3.10;;;;;;;11.15;85.96;99542.66;4180891;28;20243;-51
2022/09/21 07:11:54;;;;;;;3.70;2.70;;;;;;;11.58;85.69;99538.78;4153829;28;20201;-51
2022/09/21 07:13:57;;;;;;;3.90;3.50;;;;;;;11.82;85.06;99540.56;4148821;28;20207;-51
2022/09/21 07:16:04;;;;;;;3.38;3.05;;;;;;;12.71;80.69;99543.94;4151088;28;20216;-51
2022/09/21 07:18:13;;;;;;;3.78;2.65;;;;;;;12.13;82.44;99545.78;4149067;28;20236;-51
2022/09/21 07:20:14;;;;;;;3.30;2.67;;;;;;;13.28;82.56;99539.50;4145576;28;20324;-51
2022/09/21 07:22:16;;;;;;;4.93;3.53;;;;;;;13.30;81.13;99549.16;4159245;28;20307;-51
2022/09/21 07:24:18;;;;;;;8.63;3.50;;;;;;;13.83;76.78;99538.72;4153207;28;20684;-51
2022/09/21 07:26:21;;;;;;;3.63;2.58;;;;;;;14.84;74.66;99550.44;4151623;28;20211;-51
2022/09/21 07:28:23;;;;;;;5.15;2.55;;;;;;;15.28;73.06;99540.31;4183183;28;20207;-51
2022/09/21 07:30:26;;;;;;;6.32;2.88;;;;;;;16.20;69.14;99547.53;4154355;28;20257;-52
2022/09/21 07:32:29;;;;;;;2.83;2.63;;;;;;;15.77;72.15;99545.66;4152996;28;20264;-50
2022/09/21 07:34:38;;;;;;;8.00;2.58;;;;;;;16.30;69.73;99553.97;4153784;28;20268;-52
2022/09/21 07:36:41;;;;;;;2.20;1.90;;;;;;;16.91;67.67;99539.63;4159417;28;20251;-51
2022/09/21 07:38:43;;;;;;;4.15;2.25;;;;;;;16.82;67.79;99548.69;4153952;28;20220;-50
2022/09/21 07:40:45;;;;;;;3.13;2.28;;;;;;;16.79;67.51;99547.28;4159569;28;20233;-51
2022/09/21 07:42:47;;;;;;;2.78;2.45;;;;;;;16.88;67.57;99551.22;4183401;28;20212;-51
2022/09/21 07:44:49;;;;;;;3.03;1.77;;;;;;;17.72;64.45;99541.75;4169591;28;20571;-51
2022/09/21 07:46:52;;;;;;;2.50;2.30;;;;;;;17.08;66.45;99548.59;4156682;28;20221;-51
2022/09/21 07:48:55;;;;;;;4.93;2.47;;;;;;;16.42;67.70;99542.81;4153784;28;20248;-52
2022/09/21 07:51:05;;;;;;;3.28;2.80;;;;;;;16.32;70.12;99543.53;4168845;28;20686;-51
2022/09/21 07:53:07;;;;;;;6.07;2.35;;;;;;;16.75;69.19;99546.13;4185626;28;20192;-51
2022/09/21 07:55:11;;;;;;;2.70;2.15;;;;;;;16.41;68.81;99530.91;4154269;28;20205;-50
2022/09/21 07:59:34;;;;;;;4.80;1.85;;;;;;;17.45;66.77;99535.56;4172772;28;20240;-50
2022/09/21 08:01:38;;;;;;;4.68;1.90;;;;;;;17.96;65.13;99542.94;4163239;28;20215;-50
2022/09/21 08:03:41;;;;;;;2.38;1.75;;;;;;;18.22;64.46;99541.91;4152068;28;20544;-51
2022/09/21 08:05:45;;;;;;;2.90;1.80;;;;;;;18.73;62.39;99533.38;4152802;28;20292;-51
2022/09/21 08:07:47;;;;;;;6.95;2.22;;;;;;;18.79;62.64;99532.25;4159233;28;20232;-50
2022/09/21 08:09:52;;;;;;;2.65;1.70;;;;;;;19.36;61.32;99535.53;4164577;28;20221;-51
2022/09/21 08:11:54;;;;;;;2.92;2.17;;;;;;;18.96;62.30;99531.97;4155922;28;20205;-51
2022/09/21 08:13:59;;;;;;;3.33;2.13;;;;;;;18.92;62.97;99526.13;4166074;28;20224;-52
2022/09/21 08:16:02;;;;;;;3.03;2.58;;;;;;;19.07;64.03;99539.16;4155474;28;20709;-51
2022/09/21 08:18:06;;;;;;;3.15;2.20;;;;;;;19.78;59.65;99529.56;4183038;28;20208;-50
2022/09/21 08:20:10;;;;;;;3.70;2.60;;;;;;;18.81;62.60;99524.50;4184524;28;20232;-50
2022/09/21 08:22:13;;;;;;;2.35;1.77;;;;;;;18.39;65.02;99532.25;4167914;28;20205;-51
2022/09/21 08:24:14;;;;;;;3.22;1.25;;;;;;;18.86;63.83;99529.22;4143865;28;20611;-49
2022/09/21 08:26:18;;;;;;;3.42;2.10;;;;;;;17.57;66.88;99527.84;4159344;28;20211;-50
2022/09/21 08:28:20;;;;;;;5.38;1.90;;;;;;;17.39;67.53;99531.09;4164045;28;20274;-50
2022/09/21 08:30:22;;;;;;;6.63;1.95;;;;;;;17.35;67.31;99530.78;4150249;28;20224;-50
2022/09/21 08:32:24;;;;;;;2.25;1.92;;;;;;;17.33;66.49;99530.19;4169472;28;20208;-50
2022/09/21 08:34:46;;;;;;;3.70;1.88;;;;;;;16.77;69.13;99532.06;4156680;28;20299;-51
2022/09/21 08:36:48;;;;;;;4.25;1.90;;;;;;;17.08;67.99;99524.53;4148547;28;20213;-50
2022/09/21 08:38:56;;;;;;;5.68;1.95;;;;;;;16.11;70.48;99533.38;4154849;28;20817;-51
2022/09/21 08:41:00;;;;;;;4.15;1.98;;;;;;;16.99;68.21;99536.38;4150302;28;20229;-50
2022/09/21 08:43:09;;;;;;;3.05;1.73;;;;;;;16.84;67.96;99533.47;4169414;28;20211;-51
2022/09/21 08:45:16;;;;;;;3.85;1.83;;;;;;;17.36;67.73;99532.44;4151455;28;20212;-50
2022/09/21 08:47:23;;;;;;;2.38;1.70;;;;;;;18.10;66.69;99533.00;4170838;28;20670;-51
2022/09/21 08:49:27;;;;;;;2.65;1.95;;;;;;;17.88;65.32;99529.63;4152812;28;20241;-50
2022/09/21 08:51:35;;;;;;;2.85;1.42;;;;;;;18.69;64.63;99529.50;4152007;28;20277;-50
2022/09/21 08:53:45;;;;;;;4.68;1.67;;;;;;;17.82;66.37;99527.94;4184343;28;20208;-50
2022/09/21 08:55:47;;;;;;;2.72;1.45;;;;;;;17.98;64.45;99521.34;4153456;28;20235;-50
2022/09/21 08:57:49;;;;;;;3.55;1.30;;;;;;;18.99;63.00;99520.31;4167587;28;20207;-50
2022/09/21 08:59:51;;;;;;;2.72;1.65;;;;;;;17.45;65.50;99519.75;4169057;28;20256;-50
2022/09/21 09:02:14;;;;;;;2.28;1.55;;;;;;;17.31;66.63;99517.75;4152583;28;20774;-49
2022/09/21 09:04:38;;;;;;;2.50;1.55;;;;;;;18.08;65.73;99521.38;4168280;28;20714;-50
2022/09/21 09:07:04;;;;;;;2.90;1.60;;;;;;;17.73;65.69;99521.28;4183729;28;20219;-50
2022/09/21 09:09:30;;;;;;;3.17;1.65;;;;;;;18.37;64.63;99519.75;4184686;28;20678;-51
2022/09/21 09:11:40;;;;;;;3.63;1.40;;;;;;;18.61;64.57;99520.91;4187051;28;20712;-49
2022/09/21 09:13:51;;;;;;;5.22;1.10;;;;;;;18.38;62.57;99518.69;4169481;28;20215;-50
2022/09/21 09:16:10;;;;;;;2.47;1.17;;;;;;;17.69;65.24;99514.59;4167628;28;20741;-50
2022/09/21 09:18:18;;;;;;;1.65;1.13;;;;;;;19.14;62.96;99506.41;4154165;28;20949;-50
2022/09/21 09:20:33;;;;;;;2.13;0.60;;;;;;;17.63;62.10;99510.16;4158300;28;20347;-50
2022/09/21 09:23:11;;;;;;;1.02;0.77;;;;;;;18.26;63.28;99512.53;4182863;28;20206;-49
2022/09/21 09:25:20;;;;;;;1.83;0.80;;;;;;;17.57;61.44;99503.78;4136989;28;20235;-49
2022/09/21 09:27:40;;;;;;;2.97;0.80;;;;;;;17.77;60.62;99511.31;4184960;28;20203;-50
2022/09/21 09:29:53;;;;;;;1.42;0.70;;;;;;;16.92;61.71;99506.16;4152737;28;20263;-50
2022/09/21 09:32:02;;;;;;;0.50;0.50;;;;;;;17.35;64.94;99503.09;4176921;28;20204;-49
2022/09/21 09:34:15;;;;;;;1.92;0.80;;;;;;;16.71;62.92;99506.31;4161156;28;20216;-49
2022/09/21 09:36:17;;;;;;;2.08;0.80;;;;;;;17.30;64.78;99500.28;4184603;28;20546;-49
2022/09/21 09:38:44;;;;;;;1.83;0.80;;;;;;;18.34;62.43;99500.94;4158069;28;20211;-49
2022/09/21 09:40:56;;;;;;;2.17;0.88;;;;;;;17.89;61.36;99501.66;4167515;28;20673;-49
2022/09/21 09:43:14;;;;;;;1.30;0.90;;;;;;;17.78;59.96;99507.44;4168436;28;20248;-49
2022/09/21 09:45:24;;;;;;;2.63;0.88;;;;;;;18.41;60.99;99505.09;4156789;28;20866;-51
2022/09/21 09:47:58;;;;;;;1.00;0.73;;;;;;;18.44;58.79;99501.75;4151879;28;20205;-48
2022/09/21 09:50:04;;;;;;;0.77;0.68;;;;;;;18.11;60.42;99504.22;4167074;28;20589;-49
2022/09/21 09:52:10;;;;;;;2.35;0.85;;;;;;;18.50;61.25;99488.72;4184055;28;20703;-48
2022/09/21 09:54:14;;;;;;;2.63;0.82;;;;;;;19.19;60.77;99495.31;4155573;28;20205;-49
2022/09/21 09:56:17;;;;;;;0.85;0.52;;;;;;;19.58;59.58;99490.75;4182125;28;20227;-48
2022/09/21 09:58:19;;;;;;;2.40;0.80;;;;;;;18.94;58.68;99489.81;4191289;28;20206;-49
2022/09/21 10:00:22;;;;;;;1.10;0.55;;;;;;;18.55;58.00;99500.66;4157932;28;20224;-47